»·PEaware :: WAT295 KSBP-KLGB

WAT295 :: KSBP-KLGB

FLIGHT INFORMATION

Flight Status: Arrived
Operator: Unknown
More flights by this operator :: More flights under this callsign
Pilot: Corentin D. (28157)
Aircraft: MOONEY M-20K/M ENCORE BRAVO
(M20T)
More flights by this aircraft type
Origin: KSBP San Luis Co Regl
United States
Destination: KLGB Long Beach
United States
More flights between these airports :: More routes between these airports
Route: +RZS V186 ADAMM V394 SLI
File this flight plan on PilotEdge
Remarks: TEC route SBAP40
Altitude:
(Current/Filed)
7,000ft
Speed:
(Current/Filed)
170kts
Departed: 29-Jul-20 02:39 PM
Arrived: 29-Jul-20 03:54 PM
Distance/Time
Traveled:
150nm/1:15
Distance/Time
To Go:
Arrived

Flight Plot

Page will automatically refresh every two minutes.


Map Options




Map Legend


Flown Route
Filed Route
Departure Airport
Arrival Airport
Navaid (VOR, NDB)
Fix

Horizontal Profiles

Position Reports

Time Latitude Longitude Heading Altitude Ground
Speed
29-Jul-20 14:30 35.236840 -120.636754 128 207ft 0kts
29-Jul-20 14:31 35.236840 -120.636754 128 207ft 0kts
29-Jul-20 14:32 35.236840 -120.636754 128 207ft 0kts
29-Jul-20 14:33 35.236840 -120.636754 128 207ft 0kts
29-Jul-20 14:34 35.235853 -120.636451 155 208ft 8kts
29-Jul-20 14:35 35.234365 -120.633869 126 219ft 7kts
29-Jul-20 14:36 35.233226 -120.632437 213 216ft 0kts
29-Jul-20 14:37 35.233020 -120.633421 304 213ft 18kts
29-Jul-20 14:38 35.248300 -120.661517 303 1017ft 142kts
29-Jul-20 14:39 35.272506 -120.707067 303 2029ft 169kts
29-Jul-20 14:40 35.297895 -120.754985 303 3211ft 164kts
29-Jul-20 14:41 35.321325 -120.799233 303 4898ft 139kts
29-Jul-20 14:42 35.342745 -120.839336 303 6472ft 143kts
29-Jul-20 14:43 35.319298 -120.864137 145 6990ft 192kts
29-Jul-20 14:44 35.285877 -120.811778 129 7018ft 194kts
29-Jul-20 14:45 35.250490 -120.761637 132 7018ft 194kts
29-Jul-20 14:46 35.213933 -120.712062 132 7018ft 194kts
29-Jul-20 14:47 35.177691 -120.663050 132 7018ft 194kts
29-Jul-20 14:48 35.141013 -120.613518 132 7020ft 194kts
29-Jul-20 14:49 35.104490 -120.564267 132 7024ft 195kts
29-Jul-20 14:50 35.067882 -120.514972 133 7030ft 194kts
29-Jul-20 14:51 35.031284 -120.465765 133 7036ft 194kts
29-Jul-20 14:52 34.994780 -120.416755 133 7036ft 194kts
29-Jul-20 14:53 34.958359 -120.367925 134 7036ft 193kts
29-Jul-20 14:54 34.921845 -120.319046 135 7035ft 193kts
29-Jul-20 14:55 34.885631 -120.270631 135 7036ft 192kts
29-Jul-20 14:56 34.849552 -120.222603 135 7027ft 191kts
29-Jul-20 14:57 34.813115 -120.174513 135 7012ft 192kts
29-Jul-20 14:58 34.776970 -120.126458 135 7001ft 192kts
29-Jul-20 14:59 34.740558 -120.078050 135 6993ft 192kts
29-Jul-20 15:00 34.704061 -120.029593 135 6991ft 192kts
29-Jul-20 15:01 34.667802 -119.981522 135 6991ft 191kts
29-Jul-20 15:03 34.631785 -119.933848 135 6995ft 191kts
29-Jul-20 15:04 34.595734 -119.886191 135 6999ft 190kts
29-Jul-20 15:05 34.559884 -119.838855 135 6984ft 190kts
29-Jul-20 15:06 34.524039 -119.791600 135 6988ft 189kts
29-Jul-20 15:07 34.491989 -119.740500 126 6990ft 190kts
29-Jul-20 15:08 34.462781 -119.686619 126 6990ft 190kts
29-Jul-20 15:09 34.433651 -119.632960 126 6990ft 190kts
29-Jul-20 15:10 34.407418 -119.577238 105 6996ft 190kts
29-Jul-20 15:11 34.397366 -119.513871 100 6999ft 190kts
29-Jul-20 15:12 34.387234 -119.450404 101 6999ft 191kts
29-Jul-20 15:13 34.376708 -119.387477 101 6999ft 191kts
29-Jul-20 15:14 34.366057 -119.324240 101 6999ft 191kts
29-Jul-20 15:15 34.355363 -119.260953 101 6999ft 191kts
29-Jul-20 15:16 34.344678 -119.197918 101 6999ft 191kts
29-Jul-20 15:17 34.333994 -119.135088 101 6999ft 191kts
29-Jul-20 15:18 34.323225 -119.071979 101 6999ft 191kts
29-Jul-20 15:19 34.312418 -119.008851 101 6999ft 191kts
29-Jul-20 15:20 34.301585 -118.945776 101 6999ft 191kts
29-Jul-20 15:20 34.292537 -118.893253 101 6999ft 191kts
29-Jul-20 15:22 34.279858 -118.819883 101 6999ft 191kts
29-Jul-20 15:22 34.270753 -118.767368 101 6999ft 191kts
29-Jul-20 15:23 34.259797 -118.704354 101 6999ft 191kts
29-Jul-20 15:24 34.248808 -118.641360 101 6999ft 191kts
29-Jul-20 15:26 34.235959 -118.567939 101 6999ft 191kts
29-Jul-20 15:26 34.226815 -118.515517 101 7036ft 190kts
29-Jul-20 15:27 34.211720 -118.454109 110 7036ft 191kts
29-Jul-20 15:28 34.191871 -118.389778 110 5799ft 210kts
29-Jul-20 15:29 34.172771 -118.326970 110 5035ft 183kts
29-Jul-20 15:30 34.156110 -118.271293 110 5037ft 179kts
29-Jul-20 15:31 34.138539 -118.213706 110 5036ft 184kts
29-Jul-20 15:32 34.120654 -118.155261 110 5036ft 185kts
29-Jul-20 15:33 34.102797 -118.096957 110 5036ft 185kts
29-Jul-20 15:34 34.084887 -118.038591 110 5036ft 185kts
29-Jul-20 15:35 34.066920 -117.980142 110 5036ft 185kts
29-Jul-20 15:36 34.048972 -117.921861 110 5036ft 185kts
29-Jul-20 15:37 34.030911 -117.863332 110 5036ft 185kts
29-Jul-20 15:38 33.993303 -117.829058 192 4521ft 195kts
29-Jul-20 15:39 33.945597 -117.852018 202 4035ft 165kts
29-Jul-20 15:40 33.902244 -117.859188 181 4027ft 157kts
29-Jul-20 15:41 33.858936 -117.860600 181 4027ft 155kts
29-Jul-20 15:42 33.815826 -117.861994 181 4027ft 154kts
29-Jul-20 15:43 33.772770 -117.863380 181 4027ft 154kts
29-Jul-20 15:44 33.730005 -117.867095 210 4009ft 155kts
29-Jul-20 15:45 33.728551 -117.917904 281 3008ft 158kts
29-Jul-20 15:46 33.737101 -117.969037 281 2059ft 150kts
29-Jul-20 15:47 33.744376 -118.012593 281 2027ft 128kts
29-Jul-20 15:48 33.751370 -118.054223 281 2025ft 114kts
29-Jul-20 15:49 33.763780 -118.086124 313 1391ft 90kts
29-Jul-20 15:50 33.780218 -118.105999 313 925ft 88kts
29-Jul-20 15:51 33.796831 -118.126164 313 463ft 89kts
29-Jul-20 15:52 33.812398 -118.144850 315 36ft 63kts
29-Jul-20 15:53 33.814975 -118.146599 91 36ft 0kts
29-Jul-20 15:54 33.815161 -118.146353 317 36ft 10kts
29-Jul-20 15:55 33.818434 -118.147025 359 38ft 10kts
29-Jul-20 15:56 33.821102 -118.145459 182 39ft 0kts
29-Jul-20 15:57 33.821102 -118.145459 182 39ft 0kts
29-Jul-20 15:58 33.821102 -118.145459 182 39ft 0kts
29-Jul-20 15:59 33.821102 -118.145459 182 39ft 0kts

Navigation Log

Ident Type
Flight plan parsing failed, navigation log unavailable